Time;durP1;ratioP1;P1;durP2;ratioP2;P2;SDS_P1;SDS_P2;PMS_P1;PMS_P2;Temp;Humidity;BMP_temperature;BMP_pressure;BME280_temperature;BME280_humidity;BME280_pressure;Samples;Min_cycle;Max_cycle;Signal;HPM_P1;HPM_P2
2021/11/18 00:01:53;;;;;;;4.87;3.33;;;;;;;6.93;100.00;99508.53;5037470;28;20041;-60
2021/11/18 00:04:20;;;;;;;5.57;3.43;;;;;;;6.94;100.00;99489.84;5034534;28;20491;-60
2021/11/18 00:06:48;;;;;;;3.40;3.00;;;;;;;6.91;100.00;99504.25;5037464;28;20062;-60
2021/11/18 00:09:17;;;;;;;3.50;3.00;;;;;;;6.85;100.00;99480.41;5032931;28;20029;-59
2021/11/18 00:11:43;;;;;;;3.33;3.03;;;;;;;6.76;100.00;99489.66;5035030;28;20072;-60
2021/11/18 00:14:09;;;;;;;3.03;2.83;;;;;;;6.78;100.00;99493.09;5035572;28;20065;-60
2021/11/18 00:16:34;;;;;;;3.33;3.03;;;;;;;6.81;100.00;99498.22;5038769;28;20025;-59
2021/11/18 00:19:00;;;;;;;6.23;3.40;;;;;;;6.82;100.00;99505.03;5034873;28;20034;-59
2021/11/18 00:21:28;;;;;;;4.43;3.70;;;;;;;6.72;100.00;99508.31;5036748;28;20037;-59
2021/11/18 00:23:57;;;;;;;4.37;3.33;;;;;;;6.68;100.00;99504.88;5037909;28;20380;-60
2021/11/18 00:26:25;;;;;;;4.00;3.23;;;;;;;6.72;100.00;99501.53;5036675;28;20113;-59
2021/11/18 00:28:51;;;;;;;3.57;2.83;;;;;;;6.71;100.00;99504.03;5034335;28;20570;-58
2021/11/18 00:31:21;;;;;;;4.43;3.87;;;;;;;6.66;100.00;99500.63;5031685;28;20029;-60
2021/11/18 00:33:48;;;;;;;4.77;3.97;;;;;;;6.60;100.00;99509.03;5034851;28;20171;-60
2021/11/18 00:36:15;;;;;;;3.23;2.90;;;;;;;6.62;100.00;99514.16;5038448;28;20025;-60
2021/11/18 00:38:41;;;;;;;4.87;3.50;;;;;;;6.65;100.00;99504.00;5036256;28;20068;-60
2021/11/18 00:41:07;;;;;;;6.47;3.60;;;;;;;6.66;100.00;99521.00;5041236;28;20041;-59
2021/11/18 00:43:33;;;;;;;4.33;3.47;;;;;;;6.69;100.00;99506.59;5040203;28;20058;-57
2021/11/18 00:45:59;;;;;;;5.13;3.60;;;;;;;6.68;100.00;99526.94;5040180;28;20124;-59
2021/11/18 00:48:25;;;;;;;5.17;3.07;;;;;;;6.64;100.00;99520.97;5039068;28;20132;-62
2021/11/18 00:50:57;;;;;;;5.80;4.20;;;;;;;6.65;100.00;99511.63;5039428;28;20033;-58
2021/11/18 00:53:24;;;;;;;4.40;3.80;;;;;;;6.65;100.00;99516.72;5036365;28;20395;-57
2021/11/18 00:55:50;;;;;;;4.73;3.57;;;;;;;6.62;100.00;99537.91;5039384;28;20145;-59
2021/11/18 00:58:16;;;;;;;4.80;3.53;;;;;;;6.68;100.00;99515.06;5039326;28;20116;-59
2021/11/18 01:00:44;;;;;;;4.53;3.10;;;;;;;6.72;100.00;99528.69;5039085;28;20392;-60
2021/11/18 01:03:11;;;;;;;4.13;3.57;;;;;;;6.72;100.00;99537.19;5040010;28;20026;-59
2021/11/18 01:05:41;;;;;;;5.13;3.43;;;;;;;6.76;100.00;99522.78;5039157;28;20121;-58
2021/11/18 01:08:07;;;;;;;4.27;2.90;;;;;;;6.71;100.00;99535.47;5038144;28;20083;-58
2021/11/18 01:10:39;;;;;;;3.80;3.23;;;;;;;6.80;100.00;99516.88;5040938;28;20418;-58
2021/11/18 01:13:06;;;;;;;4.10;3.33;;;;;;;6.81;100.00;99513.50;5038454;28;20052;-60
2021/11/18 01:15:36;;;;;;;3.33;2.80;;;;;;;6.79;100.00;99526.22;5039800;28;20037;-60
2021/11/18 01:18:03;;;;;;;3.43;3.13;;;;;;;6.86;100.00;99532.25;5038503;28;20041;-59
2021/11/18 01:20:29;;;;;;;4.03;3.47;;;;;;;6.81;100.00;99539.84;5038988;28;20025;-59
2021/11/18 01:22:57;;;;;;;4.90;3.03;;;;;;;6.75;100.00;99544.88;5040779;28;20032;-59
2021/11/18 01:25:22;;;;;;;4.13;2.90;;;;;;;6.76;100.00;99540.63;5035863;28;20125;-57
2021/11/18 01:27:48;;;;;;;3.23;2.80;;;;;;;6.76;100.00;99548.28;5040745;28;20519;-57
2021/11/18 01:30:21;;;;;;;3.27;2.83;;;;;;;6.80;100.00;99547.47;5039137;28;20497;-59
2021/11/18 01:32:48;;;;;;;2.80;2.60;;;;;;;6.85;100.00;99551.78;5038016;28;20545;-57
2021/11/18 01:35:13;;;;;;;4.77;3.30;;;;;;;6.85;100.00;99533.09;5038062;28;20029;-58
2021/11/18 01:37:39;;;;;;;3.43;2.87;;;;;;;6.88;100.00;99544.16;5038325;28;20095;-59
2021/11/18 01:40:09;;;;;;;3.73;3.10;;;;;;;6.95;100.00;99545.09;5038675;28;20036;-60
2021/11/18 01:42:34;;;;;;;2.50;2.20;;;;;;;6.88;100.00;99536.50;5037202;28;20056;-60
2021/11/18 01:45:00;;;;;;;3.33;2.53;;;;;;;6.95;100.00;99544.22;5031977;28;20059;-60
2021/11/18 01:47:25;;;;;;;2.43;2.03;;;;;;;6.98;100.00;99545.13;5036950;28;20025;-59
2021/11/18 01:49:51;;;;;;;2.60;2.17;;;;;;;6.99;100.00;99544.28;5040630;28;20039;-60
2021/11/18 01:52:23;;;;;;;2.83;2.33;;;;;;;7.03;100.00;99543.47;5037159;28;20029;-58
2021/11/18 01:54:50;;;;;;;3.30;2.40;;;;;;;6.99;100.00;99533.22;5040918;28;20503;-59
2021/11/18 01:57:22;;;;;;;3.50;2.20;;;;;;;7.06;100.00;99535.84;5038810;28;20163;-59
2021/11/18 01:59:48;;;;;;;2.37;2.17;;;;;;;6.96;100.00;99541.69;5039339;28;20107;-59
2021/11/18 02:02:15;;;;;;;2.87;2.60;;;;;;;7.03;100.00;99535.81;5034992;28;20116;-58
2021/11/18 02:04:57;;;;;;;3.13;2.40;;;;;;;6.92;100.00;99531.47;5036662;28;20028;-56
2021/11/18 02:07:23;;;;;;;3.03;2.27;;;;;;;6.91;100.00;99532.31;5036990;28;20029;-59
2021/11/18 02:09:51;;;;;;;2.73;2.40;;;;;;;6.91;100.00;99527.19;5036982;28;20033;-60
2021/11/18 02:12:26;;;;;;;2.70;2.43;;;;;;;6.99;100.00;99531.53;5033819;28;20524;-59
2021/11/18 02:14:53;;;;;;;1.90;1.80;;;;;;;7.00;100.00;99523.03;5039068;28;20395;-59
2021/11/18 02:17:22;;;;;;;2.10;1.67;;;;;;;6.97;100.00;99520.44;5037037;28;20029;-59
2021/11/18 02:19:54;;;;;;;2.20;2.00;;;;;;;7.04;100.00;99522.25;5037345;28;20171;-59
2021/11/18 02:22:19;;;;;;;2.10;1.90;;;;;;;7.07;100.00;99513.75;5035090;28;20065;-58
2021/11/18 02:24:49;;;;;;;1.83;1.73;;;;;;;7.10;100.00;99514.63;5037538;28;20064;-60
2021/11/18 02:27:18;;;;;;;1.97;1.77;;;;;;;7.05;100.00;99534.13;5038414;28;20033;-60
2021/11/18 02:29:46;;;;;;;1.67;1.50;;;;;;;7.07;100.00;99523.94;5037978;28;20496;-59
2021/11/18 02:32:16;;;;;;;2.70;2.10;;;;;;;7.13;100.00;99536.78;5035733;28;20031;-60
2021/11/18 02:34:49;;;;;;;3.20;1.90;;;;;;;7.06;100.00;99535.84;5036606;28;20121;-61
2021/11/18 02:37:15;;;;;;;2.00;1.90;;;;;;;7.05;100.00;99543.47;5034696;28;20041;-58
2021/11/18 02:39:41;;;;;;;2.13;1.97;;;;;;;6.95;100.00;99544.22;5035993;28;20516;-61
2021/11/18 02:42:08;;;;;;;2.50;2.30;;;;;;;6.94;100.00;99551.03;5034751;28;20037;-60
2021/11/18 02:44:35;;;;;;;3.00;2.70;;;;;;;6.86;100.00;99545.84;5036879;28;20049;-59
2021/11/18 02:47:03;;;;;;;3.23;2.77;;;;;;;6.84;100.00;99544.97;5035997;28;20060;-60
2021/11/18 02:49:28;;;;;;;2.60;2.40;;;;;;;6.82;100.00;99546.66;5038015;28;20037;-60
2021/11/18 02:51:54;;;;;;;2.80;2.60;;;;;;;6.76;100.00;99546.59;5033057;28;20022;-59
2021/11/18 02:54:19;;;;;;;2.43;2.23;;;;;;;6.77;100.00;99547.44;5036514;28;20035;-59
2021/11/18 02:56:46;;;;;;;5.27;2.90;;;;;;;6.78;100.00;99547.47;5039006;28;20237;-55
2021/11/18 02:59:11;;;;;;;3.70;2.37;;;;;;;6.81;100.00;99551.72;5032194;28;20033;-58
2021/11/18 03:01:41;;;;;;;3.30;2.70;;;;;;;6.83;100.00;99556.00;5033829;28;20501;-59
2021/11/18 03:04:07;;;;;;;2.70;2.47;;;;;;;6.77;100.00;99552.53;5037468;28;20547;-59
2021/11/18 03:06:33;;;;;;;3.43;2.53;;;;;;;6.87;100.00;99555.19;5039191;28;20116;-59
2021/11/18 03:08:58;;;;;;;3.20;2.87;;;;;;;6.89;100.00;99556.06;5036005;28;20087;-58
2021/11/18 03:11:26;;;;;;;3.97;3.47;;;;;;;6.93;100.00;99561.19;5035632;28;20108;-60
2021/11/18 03:13:53;;;;;;;2.63;2.33;;;;;;;6.82;100.00;99556.00;5038937;28;20032;-59
2021/11/18 03:16:20;;;;;;;3.87;3.10;;;;;;;6.86;100.00;99553.50;5038964;28;20424;-55
2021/11/18 03:18:46;;;;;;;3.10;2.67;;;;;;;6.78;100.00;99552.56;5032312;28;20072;-57
2021/11/18 03:21:15;;;;;;;4.57;3.23;;;;;;;6.74;100.00;99555.06;5034118;28;20509;-55
2021/11/18 03:23:41;;;;;;;4.97;3.57;;;;;;;6.66;100.00;99566.88;5040808;28;20029;-55
2021/11/18 03:26:08;;;;;;;4.30;3.90;;;;;;;6.55;100.00;99558.22;5041023;28;20464;-57
2021/11/18 03:28:34;;;;;;;4.27;3.83;;;;;;;6.57;100.00;99564.19;5035568;28;20356;-58
2021/11/18 03:31:04;;;;;;;7.10;3.83;;;;;;;6.50;100.00;99575.13;5033427;28;20104;-56
2021/11/18 03:33:34;;;;;;;4.67;3.93;;;;;;;6.41;100.00;99565.69;5035327;28;20028;-57
2021/11/18 03:36:00;;;;;;;6.53;4.27;;;;;;;6.32;100.00;99563.88;5035836;28;20038;-57
2021/11/18 03:38:28;;;;;;;5.47;4.10;;;;;;;6.35;100.00;99568.16;5032626;28;20487;-58
2021/11/18 03:41:01;;;;;;;5.13;4.17;;;;;;;6.24;100.00;99574.78;5035002;28;20029;-58
2021/11/18 03:43:27;;;;;;;5.27;4.00;;;;;;;6.21;100.00;99575.63;5035894;28;20411;-57
2021/11/18 03:45:53;;;;;;;4.73;4.10;;;;;;;6.14;100.00;99578.06;5033574;28;20033;-59
2021/11/18 03:48:19;;;;;;;4.93;4.23;;;;;;;6.07;100.00;99589.84;5032118;28;20435;-58
2021/11/18 03:50:47;;;;;;;4.93;4.33;;;;;;;6.03;100.00;99588.09;5033865;28;20125;-56
2021/11/18 03:53:14;;;;;;;6.30;4.30;;;;;;;6.06;100.00;99577.97;5035215;28;20116;-58
2021/11/18 03:55:40;;;;;;;5.33;4.43;;;;;;;6.02;100.00;99578.75;5035921;28;20071;-59
2021/11/18 03:58:06;;;;;;;5.07;4.00;;;;;;;5.96;100.00;99593.94;5034507;28;20048;-60
2021/11/18 04:00:34;;;;;;;6.10;4.53;;;;;;;6.01;100.00;99597.41;5035946;28;20040;-58
2021/11/18 04:03:01;;;;;;;6.03;4.63;;;;;;;5.95;100.00;99602.38;5036863;28;20110;-61
2021/11/18 04:05:27;;;;;;;5.73;4.07;;;;;;;5.96;100.00;99604.97;5033836;28;20030;-60
2021/11/18 04:07:53;;;;;;;5.27;4.23;;;;;;;5.98;100.00;99607.56;5031939;28;20062;-61
2021/11/18 04:10:22;;;;;;;4.53;3.67;;;;;;;5.96;100.00;99615.16;5033381;28;20034;-62
2021/11/18 04:12:49;;;;;;;6.10;4.30;;;;;;;5.95;100.00;99622.75;5036343;28;20029;-61
2021/11/18 04:15:16;;;;;;;5.03;4.53;;;;;;;5.93;100.00;99616.81;5033925;28;20438;-60
2021/11/18 04:17:42;;;;;;;6.63;4.87;;;;;;;6.03;100.00;99615.22;5031625;28;20080;-58
2021/11/18 04:20:10;;;;;;;5.90;4.43;;;;;;;6.07;100.00;99617.00;5035076;28;20374;-59
2021/11/18 04:22:36;;;;;;;4.93;3.90;;;;;;;6.11;100.00;99624.69;5036401;28;20036;-55
2021/11/18 04:25:04;;;;;;;5.10;4.60;;;;;;;6.20;100.00;99629.91;5030460;28;20102;-59
2021/11/18 04:27:30;;;;;;;7.07;4.90;;;;;;;6.22;100.00;99630.81;5032638;28;20028;-62
2021/11/18 04:29:55;;;;;;;7.40;4.40;;;;;;;6.30;100.00;99629.22;5036612;28;20558;-55
2021/11/18 04:32:24;;;;;;;5.47;4.90;;;;;;;6.40;100.00;99627.66;5035141;28;20040;-57
2021/11/18 04:34:51;;;;;;;5.10;4.60;;;;;;;6.42;100.00;99626.84;5031588;28;20387;-59
2021/11/18 04:37:17;;;;;;;5.60;4.40;;;;;;;6.52;100.00;99635.47;5032028;28;20036;-59
2021/11/18 04:39:43;;;;;;;5.47;4.10;;;;;;;6.47;100.00;99634.53;5035614;28;20037;-57
2021/11/18 04:42:09;;;;;;;6.43;4.30;;;;;;;6.52;100.00;99640.56;5035815;28;20391;-58
2021/11/18 04:44:35;;;;;;;7.00;4.70;;;;;;;6.58;100.00;99638.06;5032791;28;20049;-58
2021/11/18 04:47:09;;;;;;;4.90;4.30;;;;;;;6.61;100.00;99637.28;5031927;28;20051;-59
2021/11/18 04:49:37;;;;;;;6.65;4.82;;;;;;;6.65;100.00;99636.47;5036288;28;20061;-59
2021/11/18 04:52:04;;;;;;;5.37;4.43;;;;;;;6.68;100.00;99649.25;5033684;28;20064;-58
2021/11/18 04:54:30;;;;;;;7.83;6.07;;;;;;;6.63;100.00;99643.25;5032822;28;20029;-57
2021/11/18 04:56:55;;;;;;;7.83;4.97;;;;;;;6.56;100.00;99651.66;5033757;28;20029;-58
2021/11/18 04:59:20;;;;;;;6.47;5.30;;;;;;;6.56;100.00;99647.41;5036079;28;20029;-58
2021/11/18 05:01:46;;;;;;;6.87;4.60;;;;;;;6.52;100.00;99653.31;5031974;28;20030;-59
2021/11/18 05:04:12;;;;;;;7.53;5.30;;;;;;;6.58;100.00;99658.47;5032615;28;20514;-53
2021/11/18 05:06:38;;;;;;;6.37;5.13;;;;;;;6.65;100.00;99675.56;5034794;28;20033;-56
2021/11/18 05:09:07;;;;;;;8.00;5.67;;;;;;;6.64;100.00;99667.88;5035406;28;20037;-55
2021/11/18 05:11:33;;;;;;;7.03;5.50;;;;;;;6.62;100.00;99667.03;5032071;28;20042;-57
2021/11/18 05:13:59;;;;;;;6.93;4.87;;;;;;;6.60;100.00;99663.59;5036388;28;20622;-58
2021/11/18 05:16:24;;;;;;;7.13;5.43;;;;;;;6.61;100.00;99660.22;5036856;28;20022;-56
2021/11/18 05:18:50;;;;;;;7.20;6.00;;;;;;;6.62;100.00;99659.38;5035469;28;20047;-57
2021/11/18 05:21:19;;;;;;;7.87;5.40;;;;;;;6.63;100.00;99658.53;5033995;28;20025;-57
2021/11/18 05:23:46;;;;;;;6.77;5.30;;;;;;;6.59;100.00;99672.91;5034365;28;20076;-56
2021/11/18 05:26:14;;;;;;;9.40;6.50;;;;;;;6.55;100.00;99671.16;5037437;28;20033;-58
2021/11/18 05:28:41;;;;;;;9.67;6.10;;;;;;;6.64;100.00;99675.53;5043081;28;20107;-57
2021/11/18 05:31:07;;;;;;;7.70;5.73;;;;;;;6.57;100.00;99678.84;5034663;28;20491;-54
2021/11/18 05:33:33;;;;;;;9.13;6.17;;;;;;;6.50;100.00;99680.44;5036842;28;20032;-57
2021/11/18 05:35:59;;;;;;;7.83;5.87;;;;;;;6.48;100.00;99684.66;5043735;28;20052;-57
2021/11/18 05:38:25;;;;;;;8.20;6.00;;;;;;;6.53;100.00;99688.13;5038600;28;20514;-56
2021/11/18 05:40:52;;;;;;;8.77;6.03;;;;;;;6.50;100.00;99685.53;5034445;28;20041;-57
2021/11/18 05:43:18;;;;;;;8.77;6.20;;;;;;;6.44;100.00;99690.56;5036978;28;20063;-58
2021/11/18 05:45:44;;;;;;;10.53;7.63;;;;;;;6.38;100.00;99703.19;5036830;28;20025;-58
2021/11/18 05:48:11;;;;;;;11.13;7.30;;;;;;;6.40;100.00;99704.94;5044310;28;20040;-57
2021/11/18 05:50:39;;;;;;;9.57;6.43;;;;;;;6.32;100.00;99698.84;5036472;28;20497;-54
2021/11/18 05:53:05;;;;;;;8.90;6.03;;;;;;;6.36;100.00;99713.38;5035822;28;20484;-57
2021/11/18 05:55:33;;;;;;;11.03;7.27;;;;;;;6.33;100.00;99720.06;5038622;28;20078;-56
2021/11/18 05:57:59;;;;;;;9.33;6.80;;;;;;;6.34;100.00;99720.13;5041324;28;20036;-57
2021/11/18 06:00:27;;;;;;;10.50;7.27;;;;;;;6.28;100.00;99722.53;5036661;28;20048;-58
2021/11/18 06:02:53;;;;;;;9.43;7.33;;;;;;;6.28;100.00;99721.72;5034337;28;20395;-57
2021/11/18 06:05:20;;;;;;;10.27;7.20;;;;;;;6.26;100.00;99731.88;5035849;28;20021;-58
2021/11/18 06:07:46;;;;;;;10.80;7.43;;;;;;;6.26;100.00;99741.19;5038932;28;20037;-57
2021/11/18 06:10:14;;;;;;;11.23;7.70;;;;;;;6.40;100.00;99740.59;5035792;28;20044;-55
2021/11/18 06:12:40;;;;;;;9.00;6.80;;;;;;;6.29;100.00;99747.19;5040461;28;20040;-59
2021/11/18 06:15:06;;;;;;;10.60;7.27;;;;;;;6.34;100.00;99749.81;5041590;28;20036;-58
2021/11/18 06:17:31;;;;;;;12.87;8.07;;;;;;;6.29;100.00;99753.97;5036513;28;20025;-57
2021/11/18 06:19:57;;;;;;;13.93;8.47;;;;;;;6.24;100.00;99758.13;5033235;28;20032;-57
2021/11/18 06:22:27;;;;;;;10.37;7.20;;;;;;;6.27;100.00;99761.59;5036946;28;20088;-55
2021/11/18 06:24:54;;;;;;;11.17;7.30;;;;;;;6.29;100.00;99770.09;5036904;28;20045;-54
2021/11/18 06:27:21;;;;;;;11.33;8.00;;;;;;;6.33;100.00;99766.78;5037413;28;20036;-57
2021/11/18 06:29:47;;;;;;;10.17;8.23;;;;;;;6.38;100.00;99771.94;5036149;28;20035;-56
2021/11/18 06:32:12;;;;;;;9.07;6.07;;;;;;;6.37;100.00;99781.28;5036152;28;20453;-56
2021/11/18 06:34:41;;;;;;;10.13;7.47;;;;;;;6.37;100.00;99785.50;5039394;28;20436;-56
2021/11/18 06:37:06;;;;;;;12.53;7.53;;;;;;;6.42;100.00;99784.75;5035510;28;20095;-59
2021/11/18 06:39:35;;;;;;;10.13;6.23;;;;;;;6.46;100.00;99785.66;5035112;28;20025;-58
2021/11/18 06:42:00;;;;;;;9.10;6.50;;;;;;;6.45;100.00;99783.09;5039792;28;20041;-59
2021/11/18 06:44:26;;;;;;;10.03;6.73;;;;;;;6.45;100.00;99790.75;5039311;28;20099;-58
2021/11/18 06:46:51;;;;;;;8.57;5.97;;;;;;;6.41;100.00;99788.13;5037671;28;20842;-58
2021/11/18 06:49:16;;;;;;;10.77;7.43;;;;;;;6.50;100.00;99796.75;5041035;28;20041;-58
2021/11/18 06:51:43;;;;;;;9.93;6.67;;;;;;;6.47;100.00;99807.75;5036962;28;20037;-58
2021/11/18 06:54:13;;;;;;;10.57;6.90;;;;;;;6.50;100.00;99795.06;5041841;28;20041;-58
2021/11/18 06:56:38;;;;;;;8.00;5.37;;;;;;;6.52;100.00;99806.16;5036139;28;20584;-56
2021/11/18 06:59:04;;;;;;;10.60;7.27;;;;;;;6.66;100.00;99803.81;5038474;28;20055;-57
2021/11/18 07:01:31;;;;;;;9.20;6.17;;;;;;;6.64;100.00;99818.22;5035171;28;20063;-59
2021/11/18 07:03:56;;;;;;;10.57;6.70;;;;;;;6.54;100.00;99812.09;5035707;28;20039;-57
2021/11/18 07:06:24;;;;;;;8.13;5.73;;;;;;;6.49;100.00;99810.34;5035345;28;20029;-56
2021/11/18 07:08:50;;;;;;;10.83;6.83;;;;;;;6.49;100.00;99817.97;5039307;28;20028;-57
2021/11/18 07:11:18;;;;;;;10.13;6.50;;;;;;;6.52;100.00;99815.47;5039298;28;20037;-54
2021/11/18 07:13:44;;;;;;;9.53;6.90;;;;;;;6.47;100.00;99823.03;5040058;28;20041;-55
2021/11/18 07:16:13;;;;;;;10.47;7.40;;;;;;;6.52;100.00;99818.03;5034741;28;20989;-56
2021/11/18 07:18:39;;;;;;;11.53;7.50;;;;;;;6.54;100.00;99829.06;5037313;28;20028;-55
2021/11/18 07:21:05;;;;;;;10.43;7.30;;;;;;;6.50;100.00;99825.63;5039666;28;20044;-54
2021/11/18 07:23:31;;;;;;;9.57;6.80;;;;;;;6.54;100.00;99836.72;5038883;28;20655;-54
2021/11/18 07:25:59;;;;;;;8.33;5.97;;;;;;;6.53;100.00;99838.44;5036868;28;20041;-54
2021/11/18 07:28:27;;;;;;;9.93;6.30;;;;;;;6.48;100.00;99836.63;5037991;28;20395;-53
2021/11/18 07:30:54;;;;;;;9.03;6.80;;;;;;;6.52;100.00;99844.34;5040810;28;20408;-54
2021/11/18 07:33:22;;;;;;;8.47;6.03;;;;;;;6.43;100.00;99846.75;5033890;28;20384;-57
2021/11/18 07:35:50;;;;;;;9.67;6.67;;;;;;;6.49;100.00;99841.78;5036455;28;20466;-57
2021/11/18 07:38:17;;;;;;;9.70;6.60;;;;;;;6.46;100.00;99823.88;5043103;28;20033;-57
2021/11/18 07:40:44;;;;;;;9.80;6.97;;;;;;;6.56;100.00;99835.94;5038844;28;20041;-59
2021/11/18 07:43:12;;;;;;;9.27;7.23;;;;;;;6.64;100.00;99830.94;5037523;28;20888;-58
2021/11/18 07:45:37;;;;;;;8.30;6.33;;;;;;;6.62;100.00;99830.09;5037615;28;20024;-59
2021/11/18 07:48:03;;;;;;;8.77;6.30;;;;;;;6.62;100.00;99827.53;5040013;28;20021;-59
2021/11/18 07:50:29;;;;;;;7.40;5.93;;;;;;;6.70;100.00;99826.81;5037661;28;20131;-56
2021/11/18 07:52:54;;;;;;;9.80;6.27;;;;;;;6.77;100.00;99833.72;5031751;28;20061;-58
2021/11/18 07:55:22;;;;;;;11.73;7.50;;;;;;;6.82;100.00;99827.00;5035307;28;20079;-57
2021/11/18 07:57:48;;;;;;;11.53;7.03;;;;;;;6.84;100.00;99827.88;5037198;28;20072;-55
2021/11/18 08:00:17;;;;;;;9.23;5.97;;;;;;;6.91;100.00;99826.28;5037298;28;20029;-57
2021/11/18 08:02:43;;;;;;;9.07;5.13;;;;;;;7.00;100.00;99828.13;5039173;28;20119;-58
2021/11/18 08:05:09;;;;;;;7.93;6.40;;;;;;;7.07;100.00;99833.31;5034970;28;20053;-57
2021/11/18 08:07:35;;;;;;;7.07;5.00;;;;;;;7.14;100.00;99840.22;5036724;28;20029;-58
2021/11/18 08:10:00;;;;;;;7.87;5.40;;;;;;;7.18;100.00;99841.97;5035294;28;20036;-58
2021/11/18 08:12:26;;;;;;;7.20;4.87;;;;;;;7.15;100.00;99835.97;5031823;28;20032;-59
2021/11/18 08:14:51;;;;;;;7.77;4.90;;;;;;;7.26;100.00;99827.63;5037314;28;20033;-59
2021/11/18 08:17:17;;;;;;;7.33;5.53;;;;;;;7.31;100.00;99828.53;5037766;28;20402;-58
2021/11/18 08:19:42;;;;;;;6.53;4.97;;;;;;;7.35;100.00;99827.75;5038325;28;20041;-58
2021/11/18 08:22:09;;;;;;;6.77;4.80;;;;;;;7.45;100.00;99828.72;5036576;28;20029;-58
2021/11/18 08:24:35;;;;;;;5.27;3.57;;;;;;;7.55;100.00;99827.16;5036549;28;20088;-58
2021/11/18 08:27:00;;;;;;;4.87;4.00;;;;;;;7.60;100.00;99840.81;5036208;28;20029;-59
2021/11/18 08:29:28;;;;;;;6.60;3.80;;;;;;;7.69;100.00;99835.81;5034818;28;20494;-58
2021/11/18 08:31:55;;;;;;;4.50;3.77;;;;;;;7.69;100.00;99836.69;5032230;28;20358;-58
2021/11/18 08:34:22;;;;;;;6.07;4.67;;;;;;;7.80;100.00;99836.81;5032513;28;20029;-58
2021/11/18 08:36:48;;;;;;;4.03;3.63;;;;;;;7.88;100.00;99836.91;5033985;28;20490;-57
2021/11/18 08:39:19;;;;;;;4.50;3.40;;;;;;;7.94;100.00;99839.50;5032693;28;20084;-57
2021/11/18 08:41:48;;;;;;;4.73;3.30;;;;;;;7.98;100.00;99847.22;5032642;28;20406;-58
2021/11/18 08:44:16;;;;;;;3.90;3.50;;;;;;;8.01;100.00;99843.84;5033758;28;20057;-55
2021/11/18 08:46:43;;;;;;;5.60;3.43;;;;;;;8.05;100.00;99848.16;5033215;28;20053;-59
2021/11/18 08:49:08;;;;;;;5.37;3.90;;;;;;;8.05;100.00;99843.03;5032032;28;20056;-58
2021/11/18 08:51:33;;;;;;;4.50;4.10;;;;;;;7.99;100.00;99838.72;5032952;28;20029;-58
2021/11/18 08:54:00;;;;;;;5.10;3.87;;;;;;;8.05;100.00;99848.16;5034488;28;20033;-60
2021/11/18 08:56:26;;;;;;;5.07;3.77;;;;;;;8.12;100.00;99847.38;5036034;28;20095;-60
2021/11/18 08:58:56;;;;;;;4.93;3.47;;;;;;;8.13;100.00;99855.06;5034187;28;20044;-59
2021/11/18 09:01:32;;;;;;;4.30;3.90;;;;;;;8.14;100.00;99848.25;5036684;28;20063;-59
2021/11/18 09:04:00;;;;;;;3.80;3.40;;;;;;;8.12;100.00;99850.78;5038838;28;20037;-55
2021/11/18 09:06:26;;;;;;;3.60;3.07;;;;;;;8.21;100.00;99856.00;5037735;28;20026;-58
2021/11/18 09:08:53;;;;;;;4.37;3.67;;;;;;;8.30;100.00;99859.50;5033799;28;20411;-58
2021/11/18 09:11:20;;;;;;;5.03;3.50;;;;;;;8.45;100.00;99857.94;5035066;28;20550;-58
2021/11/18 09:13:46;;;;;;;3.50;3.20;;;;;;;8.49;100.00;99854.56;5038948;28;20033;-58
2021/11/18 09:16:12;;;;;;;4.30;3.53;;;;;;;8.42;100.00;99857.06;5038119;28;20039;-60
2021/11/18 09:18:40;;;;;;;3.50;2.93;;;;;;;8.52;100.00;99843.53;5035786;28;20100;-59
2021/11/18 09:21:07;;;;;;;3.20;2.90;;;;;;;8.63;100.00;99853.00;5038236;28;20036;-58
2021/11/18 09:23:38;;;;;;;4.20;3.60;;;;;;;8.65;100.00;99856.44;5038936;28;20037;-60
2021/11/18 09:26:04;;;;;;;3.40;3.10;;;;;;;8.80;100.00;99852.28;5037939;28;20036;-58
2021/11/18 09:28:30;;;;;;;3.87;2.60;;;;;;;8.92;100.00;99854.91;5034515;28;20045;-59
2021/11/18 09:30:59;;;;;;;3.13;2.30;;;;;;;8.89;100.00;99849.78;5036764;28;20560;-59
2021/11/18 09:33:26;;;;;;;2.87;2.50;;;;;;;9.06;100.00;99853.31;5037824;28;20032;-59
2021/11/18 09:35:56;;;;;;;3.00;2.73;;;;;;;9.22;100.00;99852.56;5037825;28;20108;-58
2021/11/18 09:38:25;;;;;;;2.67;2.40;;;;;;;9.37;100.00;99850.09;5034720;28;20030;-59
2021/11/18 09:40:50;;;;;;;2.57;2.37;;;;;;;9.31;96.88;99849.19;5036450;28;20025;-58
2021/11/18 09:43:34;;;;;;;2.40;2.10;;;;;;;9.39;95.93;99853.50;5035721;28;20029;-56
2021/11/18 09:47:05;;;;;;;5.23;2.30;;;;;;;9.52;95.36;99849.31;5034262;28;20126;-60
2021/11/18 09:50:01;;;;;;;2.50;2.30;;;;;;;9.48;96.74;99847.59;5012864;28;20190;-59
2021/11/18 09:52:45;;;;;;;;;;;;;;;9.61;94.62;99844.25;5039311;28;20065;-59
2021/11/18 09:55:21;;;;;;;2.07;1.97;;;;;;;9.57;92.30;99847.63;5036272;28;20352;-59
2021/11/18 09:58:12;;;;;;;1.87;1.70;;;;;;;9.57;95.50;99845.06;5032281;28;20502;-58
2021/11/18 10:00:53;;;;;;;2.57;2.37;;;;;;;9.41;95.60;99840.75;5037577;28;20081;-59
2021/11/18 10:03:38;;;;;;;2.30;2.10;;;;;;;9.41;95.99;99856.97;5037304;28;20456;-59
2021/11/18 10:06:27;;;;;;;2.55;2.35;;;;;;;9.50;96.20;99853.59;5034060;28;20029;-59
2021/11/18 10:09:33;;;;;;;2.13;2.00;;;;;;;9.44;94.25;99851.84;5033229;28;20059;-59
2021/11/18 10:12:49;;;;;;;2.27;2.17;;;;;;;9.18;94.85;99845.72;5032980;28;20045;-58
2021/11/18 10:15:21;;;;;;;3.17;2.67;;;;;;;9.17;96.21;99838.88;5016224;28;20057;-59
2021/11/18 10:17:59;;;;;;;2.87;2.10;;;;;;;9.07;97.67;99843.09;5018053;28;20037;-57
2021/11/18 10:20:29;;;;;;;1.97;1.87;;;;;;;9.07;97.69;99840.56;5020643;28;20474;-60
2021/11/18 10:22:59;;;;;;;1.70;1.60;;;;;;;9.16;96.85;99847.44;5018516;28;20334;-59
2021/11/18 10:25:32;;;;;;;2.47;1.90;;;;;;;9.24;96.82;99834.66;5016878;28;20041;-60
2021/11/18 10:28:20;;;;;;;2.70;2.17;;;;;;;9.15;96.38;99844.00;5018622;28;20049;-60
2021/11/18 10:30:53;;;;;;;2.07;1.97;;;;;;;8.99;95.91;99837.09;5019541;28;20030;-60
2021/11/18 10:33:37;;;;;;;1.60;1.50;;;;;;;8.99;96.75;99819.19;5017817;28;20038;-60
2021/11/18 10:36:11;;;;;;;1.70;1.60;;;;;;;8.96;97.39;99831.94;5001862;28;20397;-60
2021/11/18 10:38:41;;;;;;;1.77;1.67;;;;;;;8.85;97.51;99838.69;5021102;28;20041;-60
2021/11/18 10:41:15;;;;;;;2.20;2.00;;;;;;;8.94;97.35;99833.63;5021672;28;20037;-59
2021/11/18 10:43:41;;;;;;;2.67;2.10;;;;;;;8.97;98.11;99833.66;5014649;28;20059;-58
2021/11/18 10:46:25;;;;;;;2.27;2.07;;;;;;;9.03;98.42;99848.19;5018547;28;20574;-59
2021/11/18 10:49:12;;;;;;;2.87;2.60;;;;;;;9.03;97.17;99818.34;5019636;28;20021;-59
2021/11/18 10:51:45;;;;;;;2.40;2.20;;;;;;;9.17;96.70;99826.94;5025629;28;20071;-60
2021/11/18 10:54:13;;;;;;;4.07;2.20;;;;;;;9.12;96.49;99826.06;5034445;28;20067;-60
2021/11/18 10:56:39;;;;;;;2.53;2.07;;;;;;;9.21;95.07;99838.06;5035110;28;20049;-59
2021/11/18 10:59:09;;;;;;;2.03;1.93;;;;;;;9.23;93.62;99830.41;5034762;28;20560;-58
2021/11/18 11:01:43;;;;;;;2.23;2.03;;;;;;;9.29;93.73;99838.13;5033423;28;20033;-58
2021/11/18 11:04:30;;;;;;;3.20;2.23;;;;;;;9.39;95.21;99830.47;5032492;28;20034;-59
2021/11/18 11:06:56;;;;;;;3.37;2.30;;;;;;;9.27;95.86;99838.09;5036625;28;20029;-58
2021/11/18 11:09:40;;;;;;;2.47;2.27;;;;;;;9.18;93.54;99823.56;5035046;28;20036;-61
2021/11/18 11:12:27;;;;;;;2.80;2.23;;;;;;;9.23;96.13;99820.16;5032619;28;20459;-59
2021/11/18 11:15:20;;;;;;;3.17;2.40;;;;;;;9.33;95.58;99843.25;5034309;28;20042;-59
2021/11/18 11:18:07;;;;;;;2.97;2.73;;;;;;;9.24;97.02;99839.78;5034713;28;20416;-58
2021/11/18 11:20:43;;;;;;;2.90;2.70;;;;;;;9.48;95.13;99833.09;5034567;28;20505;-58
2021/11/18 11:23:46;;;;;;;3.17;2.87;;;;;;;9.37;95.80;99841.56;5032127;28;20174;-60
2021/11/18 11:26:46;;;;;;;3.33;2.83;;;;;;;9.14;95.53;99814.16;5035797;28;20380;-60
2021/11/18 11:29:50;;;;;;;3.40;3.10;;;;;;;9.29;97.13;99836.41;5036913;28;20238;-56
2021/11/18 11:32:31;;;;;;;3.83;3.43;;;;;;;9.35;97.07;99843.25;5022685;28;20072;-58
2021/11/18 11:35:18;;;;;;;4.70;4.20;;;;;;;9.24;98.87;99839.78;5024634;28;20466;-60
2021/11/18 11:38:18;;;;;;;4.77;4.10;;;;;;;9.22;98.67;99842.31;5024099;28;20040;-60
2021/11/18 11:40:55;;;;;;;4.90;4.43;;;;;;;9.07;99.62;99837.13;5021545;28;20033;-59
2021/11/18 11:43:39;;;;;;;5.97;4.57;;;;;;;9.25;99.27;99856.88;5021716;28;20044;-58
2021/11/18 11:46:26;;;;;;;5.47;4.73;;;;;;;9.36;99.97;99858.63;4984644;28;20474;-62